sensor_id;sensor_type;location;lat;lon;timestamp;P1;durP1;ratioP1;P2;durP2;ratioP2
9304;SDS011;4690;52.422;13.486;2023-12-07T00:09:48;27.07;;;24.17;;
9304;SDS011;4690;52.422;13.486;2023-12-07T00:12:14;31.57;;;26.87;;
9304;SDS011;4690;52.422;13.486;2023-12-07T00:14:39;44.13;;;31.23;;
9304;SDS011;4690;52.422;13.486;2023-12-07T00:17:05;50.87;;;32.20;;
9304;SDS011;4690;52.422;13.486;2023-12-07T00:19:31;30.27;;;26.17;;
9304;SDS011;4690;52.422;13.486;2023-12-07T00:21:56;35.53;;;27.90;;
9304;SDS011;4690;52.422;13.486;2023-12-07T00:24:22;32.47;;;26.77;;
9304;SDS011;4690;52.422;13.486;2023-12-07T00:26:48;46.37;;;31.63;;
9304;SDS011;4690;52.422;13.486;2023-12-07T00:29:14;36.60;;;28.27;;
9304;SDS011;4690;52.422;13.486;2023-12-07T00:31:40;37.50;;;28.93;;
9304;SDS011;4690;52.422;13.486;2023-12-07T00:34:06;41.00;;;29.50;;
9304;SDS011;4690;52.422;13.486;2023-12-07T00:36:34;41.97;;;29.83;;
9304;SDS011;4690;52.422;13.486;2023-12-07T00:39:00;29.10;;;25.23;;
9304;SDS011;4690;52.422;13.486;2023-12-07T00:41:26;33.00;;;26.77;;
9304;SDS011;4690;52.422;13.486;2023-12-07T00:43:52;46.77;;;31.20;;
9304;SDS011;4690;52.422;13.486;2023-12-07T00:46:18;41.70;;;28.93;;
9304;SDS011;4690;52.422;13.486;2023-12-07T00:48:44;34.83;;;27.67;;
9304;SDS011;4690;52.422;13.486;2023-12-07T00:51:09;40.67;;;29.10;;
9304;SDS011;4690;52.422;13.486;2023-12-07T00:53:35;32.10;;;25.77;;
9304;SDS011;4690;52.422;13.486;2023-12-07T00:56:02;41.13;;;29.70;;
9304;SDS011;4690;52.422;13.486;2023-12-07T00:58:29;32.80;;;27.07;;
9304;SDS011;4690;52.422;13.486;2023-12-07T01:00:54;36.53;;;29.10;;
9304;SDS011;4690;52.422;13.486;2023-12-07T01:03:20;31.70;;;26.27;;
9304;SDS011;4690;52.422;13.486;2023-12-07T01:05:46;35.83;;;27.07;;
9304;SDS011;4690;52.422;13.486;2023-12-07T01:08:12;33.83;;;27.97;;
9304;SDS011;4690;52.422;13.486;2023-12-07T01:10:37;37.90;;;27.83;;
9304;SDS011;4690;52.422;13.486;2023-12-07T01:13:04;43.50;;;30.83;;
9304;SDS011;4690;52.422;13.486;2023-12-07T01:15:30;43.50;;;30.77;;
9304;SDS011;4690;52.422;13.486;2023-12-07T01:17:56;50.87;;;32.40;;
9304;SDS011;4690;52.422;13.486;2023-12-07T01:20:22;41.53;;;30.87;;
9304;SDS011;4690;52.422;13.486;2023-12-07T01:22:47;40.13;;;28.77;;
9304;SDS011;4690;52.422;13.486;2023-12-07T01:25:13;35.07;;;29.00;;
9304;SDS011;4690;52.422;13.486;2023-12-07T01:27:45;29.80;;;25.57;;
9304;SDS011;4690;52.422;13.486;2023-12-07T01:30:10;34.53;;;27.57;;
9304;SDS011;4690;52.422;13.486;2023-12-07T01:32:36;40.63;;;28.87;;
9304;SDS011;4690;52.422;13.486;2023-12-07T01:35:02;38.17;;;28.67;;
9304;SDS011;4690;52.422;13.486;2023-12-07T01:37:28;39.50;;;30.50;;
9304;SDS011;4690;52.422;13.486;2023-12-07T01:39:55;32.07;;;26.60;;
9304;SDS011;4690;52.422;13.486;2023-12-07T01:42:21;32.83;;;26.83;;
9304;SDS011;4690;52.422;13.486;2023-12-07T01:44:47;43.03;;;30.70;;
9304;SDS011;4690;52.422;13.486;2023-12-07T01:47:12;30.23;;;25.47;;
9304;SDS011;4690;52.422;13.486;2023-12-07T01:49:39;42.23;;;30.93;;
9304;SDS011;4690;52.422;13.486;2023-12-07T01:52:06;44.27;;;31.33;;
9304;SDS011;4690;52.422;13.486;2023-12-07T01:54:33;54.73;;;33.53;;
9304;SDS011;4690;52.422;13.486;2023-12-07T01:57:00;39.50;;;28.90;;
9304;SDS011;4690;52.422;13.486;2023-12-07T01:59:27;59.70;;;36.53;;
9304;SDS011;4690;52.422;13.486;2023-12-07T02:01:53;30.87;;;26.83;;
9304;SDS011;4690;52.422;13.486;2023-12-07T02:04:18;35.10;;;27.60;;
9304;SDS011;4690;52.422;13.486;2023-12-07T02:06:44;32.73;;;26.33;;
9304;SDS011;4690;52.422;13.486;2023-12-07T02:09:10;30.40;;;26.47;;
9304;SDS011;4690;52.422;13.486;2023-12-07T02:11:36;28.17;;;24.60;;
9304;SDS011;4690;52.422;13.486;2023-12-07T02:14:02;41.13;;;29.63;;
9304;SDS011;4690;52.422;13.486;2023-12-07T02:16:31;33.90;;;26.90;;
9304;SDS011;4690;52.422;13.486;2023-12-07T02:22:02;39.07;;;26.47;;
9304;SDS011;4690;52.422;13.486;2023-12-07T02:24:37;47.47;;;32.43;;
9304;SDS011;4690;52.422;13.486;2023-12-07T02:30:11;34.80;;;28.13;;
9304;SDS011;4690;52.422;13.486;2023-12-07T02:32:38;38.93;;;29.17;;
9304;SDS011;4690;52.422;13.486;2023-12-07T02:35:06;32.87;;;27.67;;
9304;SDS011;4690;52.422;13.486;2023-12-07T02:37:44;35.80;;;28.07;;
9304;SDS011;4690;52.422;13.486;2023-12-07T02:40:15;32.53;;;27.23;;
9304;SDS011;4690;52.422;13.486;2023-12-07T02:42:44;33.03;;;27.47;;
9304;SDS011;4690;52.422;13.486;2023-12-07T02:45:11;36.83;;;28.23;;
9304;SDS011;4690;52.422;13.486;2023-12-07T02:47:39;29.43;;;24.80;;
9304;SDS011;4690;52.422;13.486;2023-12-07T02:50:06;36.10;;;28.23;;
9304;SDS011;4690;52.422;13.486;2023-12-07T02:52:33;33.17;;;27.87;;
9304;SDS011;4690;52.422;13.486;2023-12-07T02:55:02;34.37;;;26.77;;
9304;SDS011;4690;52.422;13.486;2023-12-07T02:57:29;38.07;;;28.93;;
9304;SDS011;4690;52.422;13.486;2023-12-07T02:59:56;29.73;;;26.20;;
9304;SDS011;4690;52.422;13.486;2023-12-07T03:02:22;40.80;;;30.13;;
9304;SDS011;4690;52.422;13.486;2023-12-07T03:04:48;36.53;;;29.07;;
9304;SDS011;4690;52.422;13.486;2023-12-07T03:07:13;33.50;;;28.07;;
9304;SDS011;4690;52.422;13.486;2023-12-07T03:09:39;29.27;;;24.50;;
9304;SDS011;4690;52.422;13.486;2023-12-07T03:12:05;32.47;;;26.53;;
9304;SDS011;4690;52.422;13.486;2023-12-07T03:14:32;35.00;;;27.57;;
9304;SDS011;4690;52.422;13.486;2023-12-07T03:16:58;33.10;;;27.43;;
9304;SDS011;4690;52.422;13.486;2023-12-07T03:19:24;35.67;;;27.03;;
9304;SDS011;4690;52.422;13.486;2023-12-07T03:21:49;33.67;;;25.37;;
9304;SDS011;4690;52.422;13.486;2023-12-07T03:24:15;36.07;;;28.73;;
9304;SDS011;4690;52.422;13.486;2023-12-07T03:26:41;35.87;;;28.97;;
9304;SDS011;4690;52.422;13.486;2023-12-07T03:29:07;41.27;;;30.97;;
9304;SDS011;4690;52.422;13.486;2023-12-07T03:31:32;34.57;;;27.33;;
9304;SDS011;4690;52.422;13.486;2023-12-07T03:33:58;32.20;;;26.90;;
9304;SDS011;4690;52.422;13.486;2023-12-07T03:36:26;38.00;;;29.63;;
9304;SDS011;4690;52.422;13.486;2023-12-07T03:38:52;35.37;;;28.30;;
9304;SDS011;4690;52.422;13.486;2023-12-07T03:41:18;40.73;;;29.77;;
9304;SDS011;4690;52.422;13.486;2023-12-07T03:43:44;39.17;;;29.10;;
9304;SDS011;4690;52.422;13.486;2023-12-07T03:46:10;43.57;;;30.20;;
9304;SDS011;4690;52.422;13.486;2023-12-07T03:48:35;32.93;;;27.20;;
9304;SDS011;4690;52.422;13.486;2023-12-07T03:51:01;35.20;;;28.10;;
9304;SDS011;4690;52.422;13.486;2023-12-07T03:53:28;30.03;;;25.77;;
9304;SDS011;4690;52.422;13.486;2023-12-07T03:55:53;41.23;;;28.90;;
9304;SDS011;4690;52.422;13.486;2023-12-07T03:58:20;35.80;;;28.00;;
9304;SDS011;4690;52.422;13.486;2023-12-07T04:00:46;36.67;;;28.67;;
9304;SDS011;4690;52.422;13.486;2023-12-07T04:03:12;32.23;;;26.37;;
9304;SDS011;4690;52.422;13.486;2023-12-07T04:05:37;36.20;;;28.77;;
9304;SDS011;4690;52.422;13.486;2023-12-07T04:08:03;59.37;;;35.23;;
9304;SDS011;4690;52.422;13.486;2023-12-07T04:10:30;50.90;;;33.57;;
9304;SDS011;4690;52.422;13.486;2023-12-07T04:12:56;42.10;;;30.20;;
9304;SDS011;4690;52.422;13.486;2023-12-07T04:15:22;36.23;;;28.23;;
9304;SDS011;4690;52.422;13.486;2023-12-07T04:17:48;40.83;;;29.60;;
9304;SDS011;4690;52.422;13.486;2023-12-07T04:20:14;32.07;;;26.90;;
9304;SDS011;4690;52.422;13.486;2023-12-07T04:22:40;39.37;;;29.70;;
9304;SDS011;4690;52.422;13.486;2023-12-07T04:25:07;36.97;;;28.07;;
9304;SDS011;4690;52.422;13.486;2023-12-07T04:27:33;41.17;;;29.67;;
9304;SDS011;4690;52.422;13.486;2023-12-07T04:29:59;34.80;;;28.27;;
9304;SDS011;4690;52.422;13.486;2023-12-07T04:32:25;57.37;;;34.97;;
9304;SDS011;4690;52.422;13.486;2023-12-07T04:34:51;40.50;;;29.33;;
9304;SDS011;4690;52.422;13.486;2023-12-07T04:37:17;38.70;;;29.33;;
9304;SDS011;4690;52.422;13.486;2023-12-07T04:39:43;44.27;;;31.03;;
9304;SDS011;4690;52.422;13.486;2023-12-07T04:42:09;38.37;;;29.43;;
9304;SDS011;4690;52.422;13.486;2023-12-07T04:44:34;74.00;;;40.00;;
9304;SDS011;4690;52.422;13.486;2023-12-07T04:47:00;50.70;;;34.03;;
9304;SDS011;4690;52.422;13.486;2023-12-07T04:49:26;41.70;;;30.27;;
9304;SDS011;4690;52.422;13.486;2023-12-07T04:51:52;46.50;;;32.97;;
9304;SDS011;4690;52.422;13.486;2023-12-07T04:54:18;58.60;;;37.17;;
9304;SDS011;4690;52.422;13.486;2023-12-07T04:56:44;42.07;;;31.33;;
9304;SDS011;4690;52.422;13.486;2023-12-07T04:59:10;39.77;;;30.73;;
9304;SDS011;4690;52.422;13.486;2023-12-07T05:01:36;42.07;;;30.60;;
9304;SDS011;4690;52.422;13.486;2023-12-07T05:04:05;36.37;;;29.80;;
9304;SDS011;4690;52.422;13.486;2023-12-07T05:06:31;41.90;;;31.43;;
9304;SDS011;4690;52.422;13.486;2023-12-07T05:08:57;38.67;;;29.50;;
9304;SDS011;4690;52.422;13.486;2023-12-07T05:11:23;39.53;;;30.33;;
9304;SDS011;4690;52.422;13.486;2023-12-07T05:13:49;34.23;;;27.67;;
9304;SDS011;4690;52.422;13.486;2023-12-07T05:16:15;39.40;;;29.23;;
9304;SDS011;4690;52.422;13.486;2023-12-07T05:18:40;35.57;;;27.80;;
9304;SDS011;4690;52.422;13.486;2023-12-07T05:21:07;47.07;;;32.27;;
9304;SDS011;4690;52.422;13.486;2023-12-07T05:23:32;38.63;;;28.87;;
9304;SDS011;4690;52.422;13.486;2023-12-07T05:25:59;54.03;;;35.17;;
9304;SDS011;4690;52.422;13.486;2023-12-07T05:28:25;48.23;;;33.23;;
9304;SDS011;4690;52.422;13.486;2023-12-07T05:30:51;45.60;;;30.97;;
9304;SDS011;4690;52.422;13.486;2023-12-07T05:33:18;50.93;;;34.00;;
9304;SDS011;4690;52.422;13.486;2023-12-07T05:35:44;51.00;;;32.90;;
9304;SDS011;4690;52.422;13.486;2023-12-07T05:38:11;44.80;;;30.97;;
9304;SDS011;4690;52.422;13.486;2023-12-07T05:40:37;39.47;;;29.07;;
9304;SDS011;4690;52.422;13.486;2023-12-07T05:43:03;41.70;;;30.43;;
9304;SDS011;4690;52.422;13.486;2023-12-07T05:45:29;37.53;;;29.77;;
9304;SDS011;4690;52.422;13.486;2023-12-07T05:47:55;38.63;;;29.00;;
9304;SDS011;4690;52.422;13.486;2023-12-07T05:50:21;40.77;;;30.37;;
9304;SDS011;4690;52.422;13.486;2023-12-07T05:52:47;45.50;;;31.20;;
9304;SDS011;4690;52.422;13.486;2023-12-07T05:55:13;50.20;;;33.03;;
9304;SDS011;4690;52.422;13.486;2023-12-07T05:57:39;45.17;;;31.63;;
9304;SDS011;4690;52.422;13.486;2023-12-07T06:00:05;63.07;;;37.80;;
9304;SDS011;4690;52.422;13.486;2023-12-07T06:02:34;40.03;;;30.33;;
9304;SDS011;4690;52.422;13.486;2023-12-07T06:05:01;46.57;;;33.17;;
9304;SDS011;4690;52.422;13.486;2023-12-07T06:07:30;42.20;;;31.73;;
9304;SDS011;4690;52.422;13.486;2023-12-07T06:09:56;40.63;;;30.27;;
9304;SDS011;4690;52.422;13.486;2023-12-07T06:12:22;43.63;;;32.27;;
9304;SDS011;4690;52.422;13.486;2023-12-07T06:14:48;47.53;;;33.10;;
9304;SDS011;4690;52.422;13.486;2023-12-07T06:17:14;44.57;;;33.33;;
9304;SDS011;4690;52.422;13.486;2023-12-07T06:19:41;42.67;;;31.63;;
9304;SDS011;4690;52.422;13.486;2023-12-07T06:22:07;49.03;;;34.07;;
9304;SDS011;4690;52.422;13.486;2023-12-07T06:24:33;47.37;;;33.70;;
9304;SDS011;4690;52.422;13.486;2023-12-07T06:27:00;44.50;;;32.07;;
9304;SDS011;4690;52.422;13.486;2023-12-07T06:29:27;44.53;;;31.53;;
9304;SDS011;4690;52.422;13.486;2023-12-07T06:31:54;47.23;;;33.70;;
9304;SDS011;4690;52.422;13.486;2023-12-07T06:34:20;40.17;;;30.93;;
9304;SDS011;4690;52.422;13.486;2023-12-07T06:36:46;55.13;;;37.23;;
9304;SDS011;4690;52.422;13.486;2023-12-07T06:39:12;44.17;;;33.33;;
9304;SDS011;4690;52.422;13.486;2023-12-07T06:41:39;48.87;;;35.43;;
9304;SDS011;4690;52.422;13.486;2023-12-07T06:44:06;39.57;;;32.43;;
9304;SDS011;4690;52.422;13.486;2023-12-07T06:46:33;43.67;;;33.90;;
9304;SDS011;4690;52.422;13.486;2023-12-07T06:48:59;52.40;;;34.53;;
9304;SDS011;4690;52.422;13.486;2023-12-07T06:51:25;47.27;;;33.43;;
9304;SDS011;4690;52.422;13.486;2023-12-07T06:53:51;46.20;;;33.92;;
9304;SDS011;4690;52.422;13.486;2023-12-07T06:56:17;50.97;;;35.90;;
9304;SDS011;4690;52.422;13.486;2023-12-07T06:58:43;58.40;;;37.33;;
9304;SDS011;4690;52.422;13.486;2023-12-07T07:01:08;50.67;;;34.37;;
9304;SDS011;4690;52.422;13.486;2023-12-07T07:03:34;47.87;;;34.57;;
9304;SDS011;4690;52.422;13.486;2023-12-07T07:06:00;59.47;;;38.20;;
9304;SDS011;4690;52.422;13.486;2023-12-07T07:08:26;38.30;;;29.70;;
9304;SDS011;4690;52.422;13.486;2023-12-07T07:10:52;53.40;;;35.27;;
9304;SDS011;4690;52.422;13.486;2023-12-07T07:13:17;48.07;;;33.90;;
9304;SDS011;4690;52.422;13.486;2023-12-07T07:15:45;43.77;;;32.90;;
9304;SDS011;4690;52.422;13.486;2023-12-07T07:18:12;41.13;;;32.20;;
9304;SDS011;4690;52.422;13.486;2023-12-07T07:20:38;55.80;;;37.30;;
9304;SDS011;4690;52.422;13.486;2023-12-07T07:23:04;45.43;;;32.10;;
9304;SDS011;4690;52.422;13.486;2023-12-07T07:25:33;41.83;;;31.83;;
9304;SDS011;4690;52.422;13.486;2023-12-07T07:27:59;49.27;;;35.70;;
9304;SDS011;4690;52.422;13.486;2023-12-07T07:30:25;43.23;;;34.37;;
9304;SDS011;4690;52.422;13.486;2023-12-07T07:32:52;43.30;;;33.93;;
9304;SDS011;4690;52.422;13.486;2023-12-07T07:35:17;54.70;;;36.33;;
9304;SDS011;4690;52.422;13.486;2023-12-07T07:37:43;49.83;;;35.93;;
9304;SDS011;4690;52.422;13.486;2023-12-07T07:40:09;48.80;;;34.77;;
9304;SDS011;4690;52.422;13.486;2023-12-07T07:42:39;42.63;;;32.83;;
9304;SDS011;4690;52.422;13.486;2023-12-07T07:45:06;40.47;;;32.17;;
9304;SDS011;4690;52.422;13.486;2023-12-07T07:47:33;54.27;;;36.80;;
9304;SDS011;4690;52.422;13.486;2023-12-07T07:49:59;48.03;;;34.67;;
9304;SDS011;4690;52.422;13.486;2023-12-07T07:52:29;41.30;;;32.20;;
9304;SDS011;4690;52.422;13.486;2023-12-07T07:54:57;44.43;;;34.07;;
9304;SDS011;4690;52.422;13.486;2023-12-07T07:57:25;37.77;;;29.70;;
9304;SDS011;4690;52.422;13.486;2023-12-07T07:59:51;46.43;;;33.33;;
9304;SDS011;4690;52.422;13.486;2023-12-07T08:02:16;42.30;;;33.50;;
9304;SDS011;4690;52.422;13.486;2023-12-07T08:04:42;41.40;;;32.33;;
9304;SDS011;4690;52.422;13.486;2023-12-07T08:07:08;43.63;;;33.13;;
9304;SDS011;4690;52.422;13.486;2023-12-07T08:09:36;52.03;;;35.37;;
9304;SDS011;4690;52.422;13.486;2023-12-07T08:12:02;51.03;;;35.77;;
9304;SDS011;4690;52.422;13.486;2023-12-07T08:14:28;43.47;;;33.87;;
9304;SDS011;4690;52.422;13.486;2023-12-07T08:16:53;49.87;;;35.90;;
9304;SDS011;4690;52.422;13.486;2023-12-07T08:19:19;47.47;;;34.17;;
9304;SDS011;4690;52.422;13.486;2023-12-07T08:21:45;52.47;;;34.97;;
9304;SDS011;4690;52.422;13.486;2023-12-07T08:24:10;42.23;;;32.93;;
9304;SDS011;4690;52.422;13.486;2023-12-07T08:26:37;42.33;;;32.33;;
9304;SDS011;4690;52.422;13.486;2023-12-07T08:29:04;48.73;;;34.57;;
9304;SDS011;4690;52.422;13.486;2023-12-07T08:31:31;42.57;;;32.13;;
9304;SDS011;4690;52.422;13.486;2023-12-07T08:33:57;62.13;;;39.27;;
9304;SDS011;4690;52.422;13.486;2023-12-07T08:36:23;57.93;;;38.27;;
9304;SDS011;4690;52.422;13.486;2023-12-07T08:38:49;42.93;;;33.60;;
9304;SDS011;4690;52.422;13.486;2023-12-07T08:41:14;43.13;;;34.07;;
9304;SDS011;4690;52.422;13.486;2023-12-07T08:43:40;41.67;;;33.03;;
9304;SDS011;4690;52.422;13.486;2023-12-07T08:46:06;48.67;;;35.03;;
9304;SDS011;4690;52.422;13.486;2023-12-07T08:48:32;48.37;;;34.43;;
9304;SDS011;4690;52.422;13.486;2023-12-07T08:50:59;50.20;;;34.27;;
9304;SDS011;4690;52.422;13.486;2023-12-07T08:53:25;45.20;;;34.10;;
9304;SDS011;4690;52.422;13.486;2023-12-07T08:55:51;41.00;;;32.03;;
9304;SDS011;4690;52.422;13.486;2023-12-07T08:58:18;64.97;;;38.33;;
9304;SDS011;4690;52.422;13.486;2023-12-07T09:00:44;51.57;;;35.20;;
9304;SDS011;4690;52.422;13.486;2023-12-07T09:03:09;42.80;;;33.30;;
9304;SDS011;4690;52.422;13.486;2023-12-07T09:05:35;47.30;;;33.20;;
9304;SDS011;4690;52.422;13.486;2023-12-07T09:08:01;47.27;;;34.27;;
9304;SDS011;4690;52.422;13.486;2023-12-07T09:10:27;48.53;;;34.93;;
9304;SDS011;4690;52.422;13.486;2023-12-07T09:12:53;51.93;;;35.47;;
9304;SDS011;4690;52.422;13.486;2023-12-07T09:15:19;48.23;;;34.53;;
9304;SDS011;4690;52.422;13.486;2023-12-07T09:17:46;54.57;;;36.70;;
9304;SDS011;4690;52.422;13.486;2023-12-07T09:20:13;40.90;;;32.20;;
9304;SDS011;4690;52.422;13.486;2023-12-07T09:22:45;46.40;;;34.67;;
9304;SDS011;4690;52.422;13.486;2023-12-07T09:25:13;63.30;;;38.43;;
9304;SDS011;4690;52.422;13.486;2023-12-07T09:27:41;55.13;;;37.23;;
9304;SDS011;4690;52.422;13.486;2023-12-07T09:30:08;45.97;;;35.13;;
9304;SDS011;4690;52.422;13.486;2023-12-07T09:32:38;41.03;;;32.17;;
9304;SDS011;4690;52.422;13.486;2023-12-07T09:35:05;49.13;;;34.80;;
9304;SDS011;4690;52.422;13.486;2023-12-07T09:37:33;43.47;;;32.97;;
9304;SDS011;4690;52.422;13.486;2023-12-07T09:39:59;58.50;;;37.30;;
9304;SDS011;4690;52.422;13.486;2023-12-07T09:42:26;52.47;;;35.70;;
9304;SDS011;4690;52.422;13.486;2023-12-07T09:44:53;48.60;;;35.17;;
9304;SDS011;4690;52.422;13.486;2023-12-07T09:47:19;50.80;;;35.63;;
9304;SDS011;4690;52.422;13.486;2023-12-07T09:49:45;49.67;;;34.83;;
9304;SDS011;4690;52.422;13.486;2023-12-07T09:52:11;47.43;;;33.23;;
9304;SDS011;4690;52.422;13.486;2023-12-07T09:54:42;51.93;;;35.10;;
9304;SDS011;4690;52.422;13.486;2023-12-07T09:57:09;53.97;;;35.37;;
9304;SDS011;4690;52.422;13.486;2023-12-07T09:59:35;53.07;;;35.07;;
9304;SDS011;4690;52.422;13.486;2023-12-07T10:02:01;50.67;;;34.67;;
9304;SDS011;4690;52.422;13.486;2023-12-07T10:04:29;47.30;;;33.60;;
9304;SDS011;4690;52.422;13.486;2023-12-07T10:06:56;49.77;;;34.40;;
9304;SDS011;4690;52.422;13.486;2023-12-07T10:09:22;49.23;;;33.30;;
9304;SDS011;4690;52.422;13.486;2023-12-07T10:11:48;49.40;;;34.53;;
9304;SDS011;4690;52.422;13.486;2023-12-07T10:14:14;51.37;;;34.03;;
9304;SDS011;4690;52.422;13.486;2023-12-07T10:16:53;44.07;;;32.30;;
9304;SDS011;4690;52.422;13.486;2023-12-07T10:19:21;49.60;;;34.47;;
9304;SDS011;4690;52.422;13.486;2023-12-07T10:21:51;52.73;;;35.27;;
9304;SDS011;4690;52.422;13.486;2023-12-07T10:24:17;48.50;;;34.20;;
9304;SDS011;4690;52.422;13.486;2023-12-07T10:26:45;45.13;;;33.20;;
9304;SDS011;4690;52.422;13.486;2023-12-07T10:29:13;50.40;;;35.23;;
9304;SDS011;4690;52.422;13.486;2023-12-07T10:31:39;46.90;;;32.43;;
9304;SDS011;4690;52.422;13.486;2023-12-07T10:34:05;46.87;;;33.97;;
9304;SDS011;4690;52.422;13.486;2023-12-07T10:36:32;46.93;;;34.23;;
9304;SDS011;4690;52.422;13.486;2023-12-07T10:38:58;52.20;;;35.93;;
9304;SDS011;4690;52.422;13.486;2023-12-07T10:41:24;52.10;;;34.37;;
9304;SDS011;4690;52.422;13.486;2023-12-07T10:43:54;45.90;;;31.20;;
9304;SDS011;4690;52.422;13.486;2023-12-07T10:46:29;49.10;;;33.43;;
9304;SDS011;4690;52.422;13.486;2023-12-07T10:49:00;58.83;;;36.70;;
9304;SDS011;4690;52.422;13.486;2023-12-07T10:51:31;51.77;;;34.93;;
9304;SDS011;4690;52.422;13.486;2023-12-07T10:54:06;48.40;;;33.43;;
9304;SDS011;4690;52.422;13.486;2023-12-07T10:56:40;63.97;;;38.10;;
9304;SDS011;4690;52.422;13.486;2023-12-07T10:59:10;46.40;;;32.47;;
9304;SDS011;4690;52.422;13.486;2023-12-07T11:01:38;62.83;;;37.83;;
9304;SDS011;4690;52.422;13.486;2023-12-07T11:04:08;62.93;;;37.30;;
9304;SDS011;4690;52.422;13.486;2023-12-07T11:06:39;45.67;;;33.07;;
9304;SDS011;4690;52.422;13.486;2023-12-07T11:09:09;60.97;;;38.23;;
9304;SDS011;4690;52.422;13.486;2023-12-07T11:11:51;46.37;;;33.37;;
9304;SDS011;4690;52.422;13.486;2023-12-07T11:14:25;54.07;;;35.90;;
9304;SDS011;4690;52.422;13.486;2023-12-07T11:16:52;45.20;;;32.77;;
9304;SDS011;4690;52.422;13.486;2023-12-07T11:22:08;45.03;;;31.80;;
9304;SDS011;4690;52.422;13.486;2023-12-07T11:24:37;38.93;;;30.73;;
9304;SDS011;4690;52.422;13.486;2023-12-07T11:27:17;40.13;;;30.27;;
9304;SDS011;4690;52.422;13.486;2023-12-07T11:29:43;39.60;;;29.53;;
9304;SDS011;4690;52.422;13.486;2023-12-07T11:32:13;47.10;;;33.37;;
9304;SDS011;4690;52.422;13.486;2023-12-07T11:34:40;41.33;;;31.50;;
9304;SDS011;4690;52.422;13.486;2023-12-07T11:37:08;44.80;;;33.23;;
9304;SDS011;4690;52.422;13.486;2023-12-07T11:39:35;37.30;;;28.80;;
9304;SDS011;4690;52.422;13.486;2023-12-07T11:42:11;38.03;;;29.40;;
9304;SDS011;4690;52.422;13.486;2023-12-07T11:44:41;41.27;;;30.80;;
9304;SDS011;4690;52.422;13.486;2023-12-07T11:47:09;36.63;;;29.07;;
9304;SDS011;4690;52.422;13.486;2023-12-07T11:49:41;35.37;;;29.00;;
9304;SDS011;4690;52.422;13.486;2023-12-07T11:52:20;38.03;;;31.47;;
9304;SDS011;4690;52.422;13.486;2023-12-07T11:54:47;37.80;;;29.70;;
9304;SDS011;4690;52.422;13.486;2023-12-07T11:57:15;35.27;;;29.00;;
9304;SDS011;4690;52.422;13.486;2023-12-07T11:59:45;36.53;;;29.60;;
9304;SDS011;4690;52.422;13.486;2023-12-07T12:02:14;40.37;;;31.70;;
9304;SDS011;4690;52.422;13.486;2023-12-07T12:04:40;39.67;;;31.37;;
9304;SDS011;4690;52.422;13.486;2023-12-07T12:07:07;39.33;;;32.20;;
9304;SDS011;4690;52.422;13.486;2023-12-07T12:09:33;38.63;;;31.20;;
9304;SDS011;4690;52.422;13.486;2023-12-07T12:11:59;40.17;;;32.47;;
9304;SDS011;4690;52.422;13.486;2023-12-07T12:14:26;42.20;;;32.67;;
9304;SDS011;4690;52.422;13.486;2023-12-07T12:16:53;41.83;;;32.97;;
9304;SDS011;4690;52.422;13.486;2023-12-07T12:19:19;40.30;;;30.90;;
9304;SDS011;4690;52.422;13.486;2023-12-07T12:21:48;42.47;;;33.90;;
9304;SDS011;4690;52.422;13.486;2023-12-07T12:24:15;44.00;;;34.07;;
9304;SDS011;4690;52.422;13.486;2023-12-07T12:26:42;42.93;;;33.03;;
9304;SDS011;4690;52.422;13.486;2023-12-07T12:29:09;42.03;;;34.03;;
9304;SDS011;4690;52.422;13.486;2023-12-07T12:31:36;42.30;;;33.30;;
9304;SDS011;4690;52.422;13.486;2023-12-07T12:34:06;39.93;;;32.23;;
9304;SDS011;4690;52.422;13.486;2023-12-07T12:36:33;36.97;;;31.13;;
9304;SDS011;4690;52.422;13.486;2023-12-07T12:39:00;37.50;;;31.50;;
9304;SDS011;4690;52.422;13.486;2023-12-07T12:41:27;38.60;;;31.67;;
9304;SDS011;4690;52.422;13.486;2023-12-07T12:43:55;41.73;;;33.47;;
9304;SDS011;4690;52.422;13.486;2023-12-07T12:46:22;42.37;;;33.50;;
9304;SDS011;4690;52.422;13.486;2023-12-07T12:48:56;38.43;;;32.53;;
9304;SDS011;4690;52.422;13.486;2023-12-07T12:51:24;43.07;;;34.20;;
9304;SDS011;4690;52.422;13.486;2023-12-07T12:53:53;46.50;;;35.83;;
9304;SDS011;4690;52.422;13.486;2023-12-07T12:56:20;43.00;;;33.77;;
9304;SDS011;4690;52.422;13.486;2023-12-07T12:58:48;43.67;;;35.13;;
9304;SDS011;4690;52.422;13.486;2023-12-07T13:01:15;41.87;;;34.13;;
9304;SDS011;4690;52.422;13.486;2023-12-07T13:03:48;44.80;;;34.93;;
9304;SDS011;4690;52.422;13.486;2023-12-07T13:06:14;47.83;;;35.77;;
9304;SDS011;4690;52.422;13.486;2023-12-07T13:08:45;46.93;;;36.20;;
9304;SDS011;4690;52.422;13.486;2023-12-07T13:11:19;52.20;;;40.30;;
9304;SDS011;4690;52.422;13.486;2023-12-07T13:13:45;49.77;;;38.17;;
9304;SDS011;4690;52.422;13.486;2023-12-07T13:16:12;52.43;;;39.23;;
9304;SDS011;4690;52.422;13.486;2023-12-07T13:18:39;50.33;;;38.20;;
9304;SDS011;4690;52.422;13.486;2023-12-07T13:21:06;45.70;;;36.30;;
9304;SDS011;4690;52.422;13.486;2023-12-07T13:23:31;54.07;;;39.87;;
9304;SDS011;4690;52.422;13.486;2023-12-07T13:25:57;46.73;;;37.67;;
9304;SDS011;4690;52.422;13.486;2023-12-07T13:28:23;51.97;;;38.93;;
9304;SDS011;4690;52.422;13.486;2023-12-07T13:30:49;48.63;;;37.33;;
9304;SDS011;4690;52.422;13.486;2023-12-07T13:33:15;52.67;;;39.43;;
9304;SDS011;4690;52.422;13.486;2023-12-07T13:35:40;48.77;;;37.80;;
9304;SDS011;4690;52.422;13.486;2023-12-07T13:38:06;48.53;;;38.67;;
9304;SDS011;4690;52.422;13.486;2023-12-07T13:40:32;52.60;;;40.17;;
9304;SDS011;4690;52.422;13.486;2023-12-07T13:42:57;51.30;;;39.47;;
9304;SDS011;4690;52.422;13.486;2023-12-07T13:45:23;57.43;;;40.93;;
9304;SDS011;4690;52.422;13.486;2023-12-07T13:47:49;50.50;;;39.27;;
9304;SDS011;4690;52.422;13.486;2023-12-07T13:50:15;54.93;;;41.40;;
9304;SDS011;4690;52.422;13.486;2023-12-07T13:52:40;50.73;;;39.27;;
9304;SDS011;4690;52.422;13.486;2023-12-07T13:55:07;57.73;;;42.87;;
9304;SDS011;4690;52.422;13.486;2023-12-07T13:57:34;54.37;;;42.07;;
9304;SDS011;4690;52.422;13.486;2023-12-07T14:00:00;61.40;;;44.83;;
9304;SDS011;4690;52.422;13.486;2023-12-07T14:02:25;59.23;;;41.80;;
9304;SDS011;4690;52.422;13.486;2023-12-07T14:04:53;61.10;;;44.17;;
9304;SDS011;4690;52.422;13.486;2023-12-07T14:07:20;63.63;;;42.97;;
9304;SDS011;4690;52.422;13.486;2023-12-07T14:09:50;62.83;;;43.70;;
9304;SDS011;4690;52.422;13.486;2023-12-07T14:12:17;65.50;;;44.17;;
9304;SDS011;4690;52.422;13.486;2023-12-07T14:14:44;65.80;;;44.97;;
9304;SDS011;4690;52.422;13.486;2023-12-07T14:17:15;65.33;;;44.00;;
9304;SDS011;4690;52.422;13.486;2023-12-07T14:19:43;60.53;;;43.60;;
9304;SDS011;4690;52.422;13.486;2023-12-07T14:22:09;67.63;;;45.03;;
9304;SDS011;4690;52.422;13.486;2023-12-07T14:24:35;66.73;;;44.53;;
9304;SDS011;4690;52.422;13.486;2023-12-07T14:27:01;66.73;;;45.53;;
9304;SDS011;4690;52.422;13.486;2023-12-07T14:29:28;71.27;;;46.60;;
9304;SDS011;4690;52.422;13.486;2023-12-07T14:31:57;71.10;;;46.87;;
9304;SDS011;4690;52.422;13.486;2023-12-07T14:34:23;73.17;;;46.33;;
9304;SDS011;4690;52.422;13.486;2023-12-07T14:36:51;74.63;;;45.67;;
9304;SDS011;4690;52.422;13.486;2023-12-07T14:39:18;72.20;;;46.67;;
9304;SDS011;4690;52.422;13.486;2023-12-07T14:41:45;73.53;;;44.77;;
9304;SDS011;4690;52.422;13.486;2023-12-07T14:44:13;76.70;;;48.37;;
9304;SDS011;4690;52.422;13.486;2023-12-07T14:46:43;71.47;;;44.90;;
9304;SDS011;4690;52.422;13.486;2023-12-07T14:49:14;72.07;;;45.73;;